< < Back
Terminal Aerodrome Forecast


Current Version              Previous Versions:   1  2  3  4  5  6  7  8  9  

Terminal Aerodrome Forecast

866
FTUS42 KMLB 010305 AAA
TAFMCO
TAF AMD
KMCO 010305Z 0103/0124 12004KT P6SM BKN300
     FM011400 14008KT P6SM FEW040 BKN250
     FM012000 11011KT P6SM FEW040 BKN250=

Latest METAR

620
SAUS70 KWBC 010400 RRX
MTRMCO
METAR KMCO 010353Z 12006KT 10SM BKN250 22/19 A3003 RMK AO2 SLP166
T02220189 $


USA.gov is the U.S. government's official web portal to all federal, state and local government web resources and services.